sensor_id;sensor_type;location;lat;lon;timestamp;P1;durP1;ratioP1;P2;durP2;ratioP2
20415;SDS011;10367;52.202;5.996;2023-08-12T00:02:39;26.57;;;24.37;;
20415;SDS011;10367;52.202;5.996;2023-08-12T00:05:11;31.97;;;28.43;;
20415;SDS011;10367;52.202;5.996;2023-08-12T00:07:41;28.47;;;25.93;;
20415;SDS011;10367;52.202;5.996;2023-08-12T00:10:11;31.60;;;28.60;;
20415;SDS011;10367;52.202;5.996;2023-08-12T00:12:46;27.67;;;25.20;;
20415;SDS011;10367;52.202;5.996;2023-08-12T00:15:23;30.30;;;27.27;;
20415;SDS011;10367;52.202;5.996;2023-08-12T00:18:01;27.40;;;24.87;;
20415;SDS011;10367;52.202;5.996;2023-08-12T00:20:33;28.17;;;25.60;;
20415;SDS011;10367;52.202;5.996;2023-08-12T00:23:03;26.97;;;24.07;;
20415;SDS011;10367;52.202;5.996;2023-08-12T00:25:32;27.97;;;25.60;;
20415;SDS011;10367;52.202;5.996;2023-08-12T00:28:04;29.30;;;26.73;;
20415;SDS011;10367;52.202;5.996;2023-08-12T00:30:52;28.30;;;25.73;;
20415;SDS011;10367;52.202;5.996;2023-08-12T00:33:28;27.80;;;25.23;;
20415;SDS011;10367;52.202;5.996;2023-08-12T00:36:01;27.87;;;25.37;;
20415;SDS011;10367;52.202;5.996;2023-08-12T00:38:32;28.27;;;25.77;;
20415;SDS011;10367;52.202;5.996;2023-08-12T00:41:01;27.50;;;24.97;;
20415;SDS011;10367;52.202;5.996;2023-08-12T00:43:34;26.37;;;24.20;;
20415;SDS011;10367;52.202;5.996;2023-08-12T00:46:10;30.70;;;27.60;;
20415;SDS011;10367;52.202;5.996;2023-08-12T00:48:50;26.23;;;23.97;;
20415;SDS011;10367;52.202;5.996;2023-08-12T00:51:22;28.30;;;25.70;;
20415;SDS011;10367;52.202;5.996;2023-08-12T00:53:52;27.97;;;25.33;;
20415;SDS011;10367;52.202;5.996;2023-08-12T00:56:25;28.97;;;26.23;;
20415;SDS011;10367;52.202;5.996;2023-08-12T00:59:01;28.10;;;25.50;;
20415;SDS011;10367;52.202;5.996;2023-08-12T01:01:33;27.30;;;24.93;;
20415;SDS011;10367;52.202;5.996;2023-08-12T01:04:02;28.13;;;25.53;;
20415;SDS011;10367;52.202;5.996;2023-08-12T01:06:37;29.13;;;26.40;;
20415;SDS011;10367;52.202;5.996;2023-08-12T01:09:06;30.10;;;27.10;;
20415;SDS011;10367;52.202;5.996;2023-08-12T01:11:39;27.13;;;24.53;;
20415;SDS011;10367;52.202;5.996;2023-08-12T01:14:22;27.30;;;24.63;;
20415;SDS011;10367;52.202;5.996;2023-08-12T01:16:57;27.97;;;25.37;;
20415;SDS011;10367;52.202;5.996;2023-08-12T01:19:32;27.87;;;25.10;;
20415;SDS011;10367;52.202;5.996;2023-08-12T01:22:03;26.77;;;24.50;;
20415;SDS011;10367;52.202;5.996;2023-08-12T01:24:39;26.80;;;24.50;;
20415;SDS011;10367;52.202;5.996;2023-08-12T01:27:20;29.60;;;26.60;;
20415;SDS011;10367;52.202;5.996;2023-08-12T01:29:49;27.33;;;24.63;;
20415;SDS011;10367;52.202;5.996;2023-08-12T01:32:24;29.07;;;26.17;;
20415;SDS011;10367;52.202;5.996;2023-08-12T01:35:01;29.13;;;26.30;;
20415;SDS011;10367;52.202;5.996;2023-08-12T01:37:38;27.27;;;24.93;;
20415;SDS011;10367;52.202;5.996;2023-08-12T01:40:10;28.40;;;25.83;;
20415;SDS011;10367;52.202;5.996;2023-08-12T01:42:39;29.33;;;26.33;;
20415;SDS011;10367;52.202;5.996;2023-08-12T01:45:09;32.50;;;29.17;;
20415;SDS011;10367;52.202;5.996;2023-08-12T01:47:57;27.30;;;24.97;;
20415;SDS011;10367;52.202;5.996;2023-08-12T01:50:26;28.77;;;26.07;;
20415;SDS011;10367;52.202;5.996;2023-08-12T01:52:55;26.43;;;24.27;;
20415;SDS011;10367;52.202;5.996;2023-08-12T01:55:28;31.67;;;26.40;;
20415;SDS011;10367;52.202;5.996;2023-08-12T01:58:00;29.60;;;26.53;;
20415;SDS011;10367;52.202;5.996;2023-08-12T02:00:29;28.60;;;25.90;;
20415;SDS011;10367;52.202;5.996;2023-08-12T02:02:58;27.60;;;25.00;;
20415;SDS011;10367;52.202;5.996;2023-08-12T02:05:27;31.83;;;28.53;;
20415;SDS011;10367;52.202;5.996;2023-08-12T02:07:56;31.00;;;27.60;;
20415;SDS011;10367;52.202;5.996;2023-08-12T02:10:26;34.60;;;27.57;;
20415;SDS011;10367;52.202;5.996;2023-08-12T02:12:57;31.83;;;28.87;;
20415;SDS011;10367;52.202;5.996;2023-08-12T02:15:28;27.33;;;24.83;;
20415;SDS011;10367;52.202;5.996;2023-08-12T02:17:58;30.37;;;27.33;;
20415;SDS011;10367;52.202;5.996;2023-08-12T02:20:27;29.30;;;26.27;;
20415;SDS011;10367;52.202;5.996;2023-08-12T02:22:56;29.73;;;26.70;;
20415;SDS011;10367;52.202;5.996;2023-08-12T02:25:28;27.33;;;25.03;;
20415;SDS011;10367;52.202;5.996;2023-08-12T02:27:58;29.03;;;26.33;;
20415;SDS011;10367;52.202;5.996;2023-08-12T02:30:28;29.23;;;26.23;;
20415;SDS011;10367;52.202;5.996;2023-08-12T02:32:59;30.63;;;27.70;;
20415;SDS011;10367;52.202;5.996;2023-08-12T02:35:30;31.47;;;28.10;;
20415;SDS011;10367;52.202;5.996;2023-08-12T02:38:01;28.67;;;25.70;;
20415;SDS011;10367;52.202;5.996;2023-08-12T02:40:30;28.07;;;25.33;;
20415;SDS011;10367;52.202;5.996;2023-08-12T02:43:03;29.53;;;26.67;;
20415;SDS011;10367;52.202;5.996;2023-08-12T02:45:35;30.00;;;27.00;;
20415;SDS011;10367;52.202;5.996;2023-08-12T02:48:09;30.27;;;27.03;;
20415;SDS011;10367;52.202;5.996;2023-08-12T02:50:40;31.97;;;28.57;;
20415;SDS011;10367;52.202;5.996;2023-08-12T02:53:11;32.03;;;28.10;;
20415;SDS011;10367;52.202;5.996;2023-08-12T02:55:44;29.93;;;26.80;;
20415;SDS011;10367;52.202;5.996;2023-08-12T02:58:15;36.83;;;28.57;;
20415;SDS011;10367;52.202;5.996;2023-08-12T03:00:44;32.53;;;29.07;;
20415;SDS011;10367;52.202;5.996;2023-08-12T03:03:13;31.77;;;27.93;;
20415;SDS011;10367;52.202;5.996;2023-08-12T03:05:46;34.20;;;29.60;;
20415;SDS011;10367;52.202;5.996;2023-08-12T03:08:15;37.57;;;31.13;;
20415;SDS011;10367;52.202;5.996;2023-08-12T03:10:44;35.93;;;30.07;;
20415;SDS011;10367;52.202;5.996;2023-08-12T03:13:15;32.30;;;28.37;;
20415;SDS011;10367;52.202;5.996;2023-08-12T03:15:45;32.60;;;28.00;;
20415;SDS011;10367;52.202;5.996;2023-08-12T03:18:14;34.33;;;29.00;;
20415;SDS011;10367;52.202;5.996;2023-08-12T03:20:43;32.27;;;28.37;;
20415;SDS011;10367;52.202;5.996;2023-08-12T03:23:12;37.40;;;31.93;;
20415;SDS011;10367;52.202;5.996;2023-08-12T03:25:52;37.80;;;31.23;;
20415;SDS011;10367;52.202;5.996;2023-08-12T03:28:22;30.03;;;27.10;;
20415;SDS011;10367;52.202;5.996;2023-08-12T03:30:52;30.47;;;27.60;;
20415;SDS011;10367;52.202;5.996;2023-08-12T03:33:22;37.30;;;28.53;;
20415;SDS011;10367;52.202;5.996;2023-08-12T03:35:51;29.40;;;26.50;;
20415;SDS011;10367;52.202;5.996;2023-08-12T03:38:22;37.60;;;31.17;;
20415;SDS011;10367;52.202;5.996;2023-08-12T03:40:51;32.57;;;28.67;;
20415;SDS011;10367;52.202;5.996;2023-08-12T03:43:22;39.63;;;32.80;;
20415;SDS011;10367;52.202;5.996;2023-08-12T03:45:51;32.53;;;28.77;;
20415;SDS011;10367;52.202;5.996;2023-08-12T03:48:23;38.73;;;31.20;;
20415;SDS011;10367;52.202;5.996;2023-08-12T03:50:54;40.40;;;32.37;;
20415;SDS011;10367;52.202;5.996;2023-08-12T03:53:24;41.40;;;31.17;;
20415;SDS011;10367;52.202;5.996;2023-08-12T03:55:53;34.83;;;30.63;;
20415;SDS011;10367;52.202;5.996;2023-08-12T03:58:26;36.20;;;31.40;;
20415;SDS011;10367;52.202;5.996;2023-08-12T04:00:56;35.50;;;28.90;;
20415;SDS011;10367;52.202;5.996;2023-08-12T04:03:25;36.03;;;30.73;;
20415;SDS011;10367;52.202;5.996;2023-08-12T04:05:59;34.33;;;30.60;;
20415;SDS011;10367;52.202;5.996;2023-08-12T04:08:28;40.20;;;32.40;;
20415;SDS011;10367;52.202;5.996;2023-08-12T04:11:06;34.37;;;28.43;;
20415;SDS011;10367;52.202;5.996;2023-08-12T04:13:37;31.70;;;28.33;;
20415;SDS011;10367;52.202;5.996;2023-08-12T04:16:08;34.03;;;30.23;;
20415;SDS011;10367;52.202;5.996;2023-08-12T04:18:37;37.50;;;30.07;;
20415;SDS011;10367;52.202;5.996;2023-08-12T04:21:07;34.43;;;30.40;;
20415;SDS011;10367;52.202;5.996;2023-08-12T04:23:36;33.70;;;30.10;;
20415;SDS011;10367;52.202;5.996;2023-08-12T04:26:11;39.93;;;34.17;;
20415;SDS011;10367;52.202;5.996;2023-08-12T04:31:57;31.60;;;28.23;;
20415;SDS011;10367;52.202;5.996;2023-08-12T04:34:27;41.87;;;33.10;;
20415;SDS011;10367;52.202;5.996;2023-08-12T04:36:56;44.03;;;33.17;;
20415;SDS011;10367;52.202;5.996;2023-08-12T04:39:45;35.43;;;31.37;;
20415;SDS011;10367;52.202;5.996;2023-08-12T04:42:15;41.40;;;33.40;;
20415;SDS011;10367;52.202;5.996;2023-08-12T04:44:47;34.97;;;30.43;;
20415;SDS011;10367;52.202;5.996;2023-08-12T04:47:16;37.80;;;30.83;;
20415;SDS011;10367;52.202;5.996;2023-08-12T04:49:50;39.90;;;31.10;;
20415;SDS011;10367;52.202;5.996;2023-08-12T04:52:20;44.10;;;33.77;;
20415;SDS011;10367;52.202;5.996;2023-08-12T04:54:52;30.43;;;27.20;;
20415;SDS011;10367;52.202;5.996;2023-08-12T04:57:23;38.10;;;31.07;;
20415;SDS011;10367;52.202;5.996;2023-08-12T04:59:58;39.07;;;31.63;;
20415;SDS011;10367;52.202;5.996;2023-08-12T05:02:29;34.93;;;29.77;;
20415;SDS011;10367;52.202;5.996;2023-08-12T05:04:59;34.43;;;30.77;;
20415;SDS011;10367;52.202;5.996;2023-08-12T05:07:28;40.47;;;32.93;;
20415;SDS011;10367;52.202;5.996;2023-08-12T05:09:58;35.83;;;30.43;;
20415;SDS011;10367;52.202;5.996;2023-08-12T05:12:27;33.77;;;30.23;;
20415;SDS011;10367;52.202;5.996;2023-08-12T05:14:58;35.23;;;31.20;;
20415;SDS011;10367;52.202;5.996;2023-08-12T05:17:27;43.63;;;33.53;;
20415;SDS011;10367;52.202;5.996;2023-08-12T05:19:56;38.23;;;31.70;;
20415;SDS011;10367;52.202;5.996;2023-08-12T05:22:25;42.50;;;34.47;;
20415;SDS011;10367;52.202;5.996;2023-08-12T05:24:54;35.90;;;30.43;;
20415;SDS011;10367;52.202;5.996;2023-08-12T05:27:24;44.13;;;32.90;;
20415;SDS011;10367;52.202;5.996;2023-08-12T05:29:53;34.93;;;30.97;;
20415;SDS011;10367;52.202;5.996;2023-08-12T05:32:26;39.40;;;34.83;;
20415;SDS011;10367;52.202;5.996;2023-08-12T05:34:55;35.30;;;31.00;;
20415;SDS011;10367;52.202;5.996;2023-08-12T05:37:26;38.43;;;34.23;;
20415;SDS011;10367;52.202;5.996;2023-08-12T05:39:55;36.87;;;31.30;;
20415;SDS011;10367;52.202;5.996;2023-08-12T05:42:25;42.00;;;34.97;;
20415;SDS011;10367;52.202;5.996;2023-08-12T05:44:55;35.77;;;29.13;;
20415;SDS011;10367;52.202;5.996;2023-08-12T05:47:29;39.83;;;32.77;;
20415;SDS011;10367;52.202;5.996;2023-08-12T05:49:59;42.77;;;32.43;;
20415;SDS011;10367;52.202;5.996;2023-08-12T05:52:30;38.93;;;32.30;;
20415;SDS011;10367;52.202;5.996;2023-08-12T05:54:59;37.20;;;31.10;;
20415;SDS011;10367;52.202;5.996;2023-08-12T05:57:29;35.57;;;31.60;;
20415;SDS011;10367;52.202;5.996;2023-08-12T06:00:01;36.10;;;31.90;;
20415;SDS011;10367;52.202;5.996;2023-08-12T06:02:32;35.23;;;31.30;;
20415;SDS011;10367;52.202;5.996;2023-08-12T06:05:01;35.97;;;31.27;;
20415;SDS011;10367;52.202;5.996;2023-08-12T06:07:31;31.03;;;27.83;;
20415;SDS011;10367;52.202;5.996;2023-08-12T06:10:00;38.93;;;32.83;;
20415;SDS011;10367;52.202;5.996;2023-08-12T06:12:31;41.20;;;31.30;;
20415;SDS011;10367;52.202;5.996;2023-08-12T06:15:00;35.57;;;31.37;;
20415;SDS011;10367;52.202;5.996;2023-08-12T06:17:31;33.97;;;30.37;;
20415;SDS011;10367;52.202;5.996;2023-08-12T06:20:01;32.43;;;29.17;;
20415;SDS011;10367;52.202;5.996;2023-08-12T06:22:33;37.73;;;31.63;;
20415;SDS011;10367;52.202;5.996;2023-08-12T06:25:15;32.30;;;28.97;;
20415;SDS011;10367;52.202;5.996;2023-08-12T06:27:45;35.53;;;30.07;;
20415;SDS011;10367;52.202;5.996;2023-08-12T06:30:14;34.33;;;29.80;;
20415;SDS011;10367;52.202;5.996;2023-08-12T06:32:49;33.97;;;29.73;;
20415;SDS011;10367;52.202;5.996;2023-08-12T06:35:20;40.83;;;33.33;;
20415;SDS011;10367;52.202;5.996;2023-08-12T06:37:49;45.03;;;34.57;;
20415;SDS011;10367;52.202;5.996;2023-08-12T06:40:19;38.60;;;31.27;;
20415;SDS011;10367;52.202;5.996;2023-08-12T06:42:50;31.03;;;27.67;;
20415;SDS011;10367;52.202;5.996;2023-08-12T06:45:21;38.83;;;30.73;;
20415;SDS011;10367;52.202;5.996;2023-08-12T06:47:59;34.10;;;30.40;;
20415;SDS011;10367;52.202;5.996;2023-08-12T06:50:30;38.70;;;32.43;;
20415;SDS011;10367;52.202;5.996;2023-08-12T06:53:01;33.30;;;29.63;;
20415;SDS011;10367;52.202;5.996;2023-08-12T06:55:30;32.83;;;29.33;;
20415;SDS011;10367;52.202;5.996;2023-08-12T06:57:59;33.77;;;30.17;;
20415;SDS011;10367;52.202;5.996;2023-08-12T07:00:32;34.97;;;29.40;;
20415;SDS011;10367;52.202;5.996;2023-08-12T07:03:02;33.83;;;30.37;;
20415;SDS011;10367;52.202;5.996;2023-08-12T07:05:32;34.57;;;30.63;;
20415;SDS011;10367;52.202;5.996;2023-08-12T07:08:00;32.80;;;29.27;;
20415;SDS011;10367;52.202;5.996;2023-08-12T07:10:30;30.20;;;27.40;;
20415;SDS011;10367;52.202;5.996;2023-08-12T07:12:59;33.53;;;29.93;;
20415;SDS011;10367;52.202;5.996;2023-08-12T07:15:28;32.93;;;29.67;;
20415;SDS011;10367;52.202;5.996;2023-08-12T07:17:58;31.43;;;28.37;;
20415;SDS011;10367;52.202;5.996;2023-08-12T07:20:29;30.90;;;27.87;;
20415;SDS011;10367;52.202;5.996;2023-08-12T07:22:58;29.60;;;26.83;;
20415;SDS011;10367;52.202;5.996;2023-08-12T07:25:27;30.77;;;27.80;;
20415;SDS011;10367;52.202;5.996;2023-08-12T07:27:57;26.17;;;23.97;;
20415;SDS011;10367;52.202;5.996;2023-08-12T07:30:27;32.30;;;29.07;;
20415;SDS011;10367;52.202;5.996;2023-08-12T07:32:56;30.27;;;27.43;;
20415;SDS011;10367;52.202;5.996;2023-08-12T07:35:28;31.83;;;28.43;;
20415;SDS011;10367;52.202;5.996;2023-08-12T07:37:58;28.93;;;26.00;;
20415;SDS011;10367;52.202;5.996;2023-08-12T07:40:27;27.23;;;24.63;;
20415;SDS011;10367;52.202;5.996;2023-08-12T07:42:59;25.83;;;23.67;;
20415;SDS011;10367;52.202;5.996;2023-08-12T07:45:28;29.33;;;26.43;;
20415;SDS011;10367;52.202;5.996;2023-08-12T07:47:57;26.23;;;23.97;;
20415;SDS011;10367;52.202;5.996;2023-08-12T07:50:26;24.53;;;22.73;;
20415;SDS011;10367;52.202;5.996;2023-08-12T07:52:57;22.30;;;20.60;;
20415;SDS011;10367;52.202;5.996;2023-08-12T07:55:27;25.30;;;23.17;;
20415;SDS011;10367;52.202;5.996;2023-08-12T07:57:56;22.70;;;21.10;;
20415;SDS011;10367;52.202;5.996;2023-08-12T08:00:27;26.87;;;24.43;;
20415;SDS011;10367;52.202;5.996;2023-08-12T08:02:56;25.67;;;23.53;;
20415;SDS011;10367;52.202;5.996;2023-08-12T08:05:29;28.97;;;26.23;;
20415;SDS011;10367;52.202;5.996;2023-08-12T08:07:57;24.00;;;21.90;;
20415;SDS011;10367;52.202;5.996;2023-08-12T08:10:27;26.03;;;23.73;;
20415;SDS011;10367;52.202;5.996;2023-08-12T08:12:58;24.60;;;22.33;;
20415;SDS011;10367;52.202;5.996;2023-08-12T08:15:27;24.60;;;22.63;;
20415;SDS011;10367;52.202;5.996;2023-08-12T08:17:57;23.13;;;21.20;;
20415;SDS011;10367;52.202;5.996;2023-08-12T08:20:33;25.93;;;23.30;;
20415;SDS011;10367;52.202;5.996;2023-08-12T08:23:13;22.50;;;20.80;;
20415;SDS011;10367;52.202;5.996;2023-08-12T08:25:46;24.67;;;22.60;;
20415;SDS011;10367;52.202;5.996;2023-08-12T08:28:16;23.83;;;22.10;;
20415;SDS011;10367;52.202;5.996;2023-08-12T08:30:46;23.57;;;21.73;;
20415;SDS011;10367;52.202;5.996;2023-08-12T08:33:15;24.13;;;21.80;;
20415;SDS011;10367;52.202;5.996;2023-08-12T08:35:46;23.27;;;21.37;;
20415;SDS011;10367;52.202;5.996;2023-08-12T08:38:18;26.50;;;24.07;;
20415;SDS011;10367;52.202;5.996;2023-08-12T08:40:50;23.33;;;21.63;;
20415;SDS011;10367;52.202;5.996;2023-08-12T08:43:21;23.30;;;21.50;;
20415;SDS011;10367;52.202;5.996;2023-08-12T08:45:52;23.60;;;21.90;;
20415;SDS011;10367;52.202;5.996;2023-08-12T08:48:21;22.33;;;20.73;;
20415;SDS011;10367;52.202;5.996;2023-08-12T08:50:52;24.77;;;22.50;;
20415;SDS011;10367;52.202;5.996;2023-08-12T08:53:23;24.73;;;22.57;;
20415;SDS011;10367;52.202;5.996;2023-08-12T08:55:52;22.53;;;20.93;;
20415;SDS011;10367;52.202;5.996;2023-08-12T08:58:27;26.53;;;24.23;;
20415;SDS011;10367;52.202;5.996;2023-08-12T09:00:59;24.23;;;20.73;;
20415;SDS011;10367;52.202;5.996;2023-08-12T09:03:29;26.33;;;24.07;;
20415;SDS011;10367;52.202;5.996;2023-08-12T09:06:00;22.70;;;20.97;;
20415;SDS011;10367;52.202;5.996;2023-08-12T09:08:30;24.83;;;22.77;;
20415;SDS011;10367;52.202;5.996;2023-08-12T09:11:00;22.67;;;21.03;;
20415;SDS011;10367;52.202;5.996;2023-08-12T09:13:30;24.23;;;22.33;;
20415;SDS011;10367;52.202;5.996;2023-08-12T09:16:02;22.07;;;20.57;;
20415;SDS011;10367;52.202;5.996;2023-08-12T09:18:31;24.63;;;22.60;;
20415;SDS011;10367;52.202;5.996;2023-08-12T09:21:06;23.63;;;21.87;;
20415;SDS011;10367;52.202;5.996;2023-08-12T09:23:35;21.57;;;20.17;;
20415;SDS011;10367;52.202;5.996;2023-08-12T09:26:12;23.00;;;21.30;;
20415;SDS011;10367;52.202;5.996;2023-08-12T09:28:44;22.07;;;20.63;;
20415;SDS011;10367;52.202;5.996;2023-08-12T09:31:22;21.60;;;20.17;;
20415;SDS011;10367;52.202;5.996;2023-08-12T09:33:53;21.50;;;20.00;;
20415;SDS011;10367;52.202;5.996;2023-08-12T09:36:30;21.87;;;20.30;;
20415;SDS011;10367;52.202;5.996;2023-08-12T09:38:59;21.57;;;20.17;;
20415;SDS011;10367;52.202;5.996;2023-08-12T09:41:33;21.40;;;20.00;;
20415;SDS011;10367;52.202;5.996;2023-08-12T09:44:08;21.43;;;20.03;;
20415;SDS011;10367;52.202;5.996;2023-08-12T09:46:38;23.80;;;22.20;;
20415;SDS011;10367;52.202;5.996;2023-08-12T09:49:07;22.20;;;20.80;;
20415;SDS011;10367;52.202;5.996;2023-08-12T09:51:46;23.40;;;21.80;;
20415;SDS011;10367;52.202;5.996;2023-08-12T09:54:14;22.57;;;21.07;;
20415;SDS011;10367;52.202;5.996;2023-08-12T09:56:48;22.17;;;20.83;;
20415;SDS011;10367;52.202;5.996;2023-08-12T09:59:23;22.37;;;21.00;;
20415;SDS011;10367;52.202;5.996;2023-08-12T10:01:56;22.40;;;21.10;;
20415;SDS011;10367;52.202;5.996;2023-08-12T10:04:27;22.60;;;21.20;;
20415;SDS011;10367;52.202;5.996;2023-08-12T10:10:09;20.60;;;19.47;;
20415;SDS011;10367;52.202;5.996;2023-08-12T10:12:39;21.67;;;20.47;;
20415;SDS011;10367;52.202;5.996;2023-08-12T10:18:36;22.50;;;21.20;;
20415;SDS011;10367;52.202;5.996;2023-08-12T10:24:41;22.70;;;21.40;;
20415;SDS011;10367;52.202;5.996;2023-08-12T10:27:12;22.23;;;20.90;;
20415;SDS011;10367;52.202;5.996;2023-08-12T10:29:45;22.10;;;20.90;;
20415;SDS011;10367;52.202;5.996;2023-08-12T10:32:15;22.80;;;21.50;;
20415;SDS011;10367;52.202;5.996;2023-08-12T10:34:45;22.43;;;21.17;;
20415;SDS011;10367;52.202;5.996;2023-08-12T10:40:19;21.83;;;20.63;;
20415;SDS011;10367;52.202;5.996;2023-08-12T10:42:50;22.70;;;21.40;;
20415;SDS011;10367;52.202;5.996;2023-08-12T10:45:20;22.07;;;20.77;;
20415;SDS011;10367;52.202;5.996;2023-08-12T10:47:51;21.87;;;20.37;;
20415;SDS011;10367;52.202;5.996;2023-08-12T10:50:38;21.70;;;20.40;;
20415;SDS011;10367;52.202;5.996;2023-08-12T10:53:22;22.83;;;21.33;;
20415;SDS011;10367;52.202;5.996;2023-08-12T10:55:57;23.03;;;21.63;;
20415;SDS011;10367;52.202;5.996;2023-08-12T10:58:33;23.27;;;21.77;;
20415;SDS011;10367;52.202;5.996;2023-08-12T11:01:03;23.40;;;21.77;;
20415;SDS011;10367;52.202;5.996;2023-08-12T11:03:42;22.03;;;20.83;;
20415;SDS011;10367;52.202;5.996;2023-08-12T11:06:11;21.60;;;20.40;;
20415;SDS011;10367;52.202;5.996;2023-08-12T11:08:45;21.90;;;20.70;;
20415;SDS011;10367;52.202;5.996;2023-08-12T11:11:18;22.90;;;21.40;;
20415;SDS011;10367;52.202;5.996;2023-08-12T11:13:54;24.07;;;22.50;;
20415;SDS011;10367;52.202;5.996;2023-08-12T11:16:34;24.40;;;22.63;;
20415;SDS011;10367;52.202;5.996;2023-08-12T11:19:04;23.73;;;22.13;;
20415;SDS011;10367;52.202;5.996;2023-08-12T11:21:36;24.47;;;22.87;;
20415;SDS011;10367;52.202;5.996;2023-08-12T11:24:05;23.77;;;22.27;;
20415;SDS011;10367;52.202;5.996;2023-08-12T11:26:35;24.33;;;22.63;;
20415;SDS011;10367;52.202;5.996;2023-08-12T11:29:09;23.70;;;22.03;;
20415;SDS011;10367;52.202;5.996;2023-08-12T11:31:39;23.87;;;22.27;;
20415;SDS011;10367;52.202;5.996;2023-08-12T11:34:08;23.67;;;21.93;;
20415;SDS011;10367;52.202;5.996;2023-08-12T11:36:37;25.60;;;23.73;;
20415;SDS011;10367;52.202;5.996;2023-08-12T11:39:07;23.43;;;21.83;;
20415;SDS011;10367;52.202;5.996;2023-08-12T11:41:43;25.40;;;23.30;;
20415;SDS011;10367;52.202;5.996;2023-08-12T11:44:16;24.60;;;22.90;;
20415;SDS011;10367;52.202;5.996;2023-08-12T11:46:45;26.77;;;24.77;;
20415;SDS011;10367;52.202;5.996;2023-08-12T11:49:14;24.63;;;22.83;;
20415;SDS011;10367;52.202;5.996;2023-08-12T11:51:46;25.27;;;23.27;;
20415;SDS011;10367;52.202;5.996;2023-08-12T11:54:18;23.17;;;21.57;;
20415;SDS011;10367;52.202;5.996;2023-08-12T11:56:47;22.57;;;21.07;;
20415;SDS011;10367;52.202;5.996;2023-08-12T11:59:18;23.63;;;21.70;;
20415;SDS011;10367;52.202;5.996;2023-08-12T12:01:50;23.90;;;22.03;;
20415;SDS011;10367;52.202;5.996;2023-08-12T12:04:20;24.77;;;22.87;;
20415;SDS011;10367;52.202;5.996;2023-08-12T12:06:50;24.20;;;22.47;;
20415;SDS011;10367;52.202;5.996;2023-08-12T12:09:20;23.13;;;21.67;;
20415;SDS011;10367;52.202;5.996;2023-08-12T12:11:51;22.97;;;21.47;;
20415;SDS011;10367;52.202;5.996;2023-08-12T12:14:22;24.00;;;22.33;;
20415;SDS011;10367;52.202;5.996;2023-08-12T12:16:53;23.60;;;21.87;;
20415;SDS011;10367;52.202;5.996;2023-08-12T12:19:22;24.53;;;22.77;;
20415;SDS011;10367;52.202;5.996;2023-08-12T12:21:52;25.33;;;22.57;;
20415;SDS011;10367;52.202;5.996;2023-08-12T12:24:43;25.70;;;23.87;;
20415;SDS011;10367;52.202;5.996;2023-08-12T12:27:18;24.50;;;22.87;;
20415;SDS011;10367;52.202;5.996;2023-08-12T12:29:48;24.47;;;22.87;;
20415;SDS011;10367;52.202;5.996;2023-08-12T12:32:23;24.57;;;22.97;;
20415;SDS011;10367;52.202;5.996;2023-08-12T12:34:55;23.87;;;22.40;;
20415;SDS011;10367;52.202;5.996;2023-08-12T12:37:24;23.43;;;21.93;;
20415;SDS011;10367;52.202;5.996;2023-08-12T12:39:55;26.17;;;24.23;;
20415;SDS011;10367;52.202;5.996;2023-08-12T12:42:24;23.30;;;21.73;;
20415;SDS011;10367;52.202;5.996;2023-08-12T12:44:57;24.57;;;22.67;;
20415;SDS011;10367;52.202;5.996;2023-08-12T12:47:26;23.50;;;22.00;;
20415;SDS011;10367;52.202;5.996;2023-08-12T12:49:55;23.90;;;21.97;;
20415;SDS011;10367;52.202;5.996;2023-08-12T12:52:24;24.40;;;22.83;;
20415;SDS011;10367;52.202;5.996;2023-08-12T12:54:53;25.30;;;23.40;;
20415;SDS011;10367;52.202;5.996;2023-08-12T12:57:24;24.30;;;22.70;;
20415;SDS011;10367;52.202;5.996;2023-08-12T12:59:58;24.47;;;22.97;;
20415;SDS011;10367;52.202;5.996;2023-08-12T13:02:27;24.63;;;22.77;;
20415;SDS011;10367;52.202;5.996;2023-08-12T13:04:56;24.27;;;22.77;;
20415;SDS011;10367;52.202;5.996;2023-08-12T13:07:26;23.93;;;22.47;;
20415;SDS011;10367;52.202;5.996;2023-08-12T13:09:56;24.77;;;23.17;;
20415;SDS011;10367;52.202;5.996;2023-08-12T13:12:28;23.67;;;21.73;;
20415;SDS011;10367;52.202;5.996;2023-08-12T13:15:00;24.10;;;22.60;;
20415;SDS011;10367;52.202;5.996;2023-08-12T13:17:29;24.43;;;22.63;;
20415;SDS011;10367;52.202;5.996;2023-08-12T13:19:58;23.60;;;21.90;;
20415;SDS011;10367;52.202;5.996;2023-08-12T13:22:27;24.57;;;22.57;;
20415;SDS011;10367;52.202;5.996;2023-08-12T13:25:01;23.03;;;21.53;;
20415;SDS011;10367;52.202;5.996;2023-08-12T13:27:45;25.23;;;23.40;;
20415;SDS011;10367;52.202;5.996;2023-08-12T13:30:16;24.60;;;22.50;;
20415;SDS011;10367;52.202;5.996;2023-08-12T13:32:45;25.47;;;23.27;;
20415;SDS011;10367;52.202;5.996;2023-08-12T13:38:02;24.43;;;22.90;;
20415;SDS011;10367;52.202;5.996;2023-08-12T13:40:32;27.67;;;25.47;;
20415;SDS011;10367;52.202;5.996;2023-08-12T13:43:01;26.30;;;24.27;;
20415;SDS011;10367;52.202;5.996;2023-08-12T13:45:32;27.30;;;25.33;;
20415;SDS011;10367;52.202;5.996;2023-08-12T13:48:06;25.20;;;23.60;;
20415;SDS011;10367;52.202;5.996;2023-08-12T13:50:37;28.00;;;25.67;;
20415;SDS011;10367;52.202;5.996;2023-08-12T13:53:26;25.17;;;23.37;;
20415;SDS011;10367;52.202;5.996;2023-08-12T13:56:01;24.97;;;23.23;;
20415;SDS011;10367;52.202;5.996;2023-08-12T13:58:34;25.33;;;23.60;;
20415;SDS011;10367;52.202;5.996;2023-08-12T14:01:06;25.97;;;24.10;;
20415;SDS011;10367;52.202;5.996;2023-08-12T14:03:43;27.27;;;24.97;;
20415;SDS011;10367;52.202;5.996;2023-08-12T14:06:13;24.83;;;23.30;;
20415;SDS011;10367;52.202;5.996;2023-08-12T14:08:42;25.23;;;23.57;;
20415;SDS011;10367;52.202;5.996;2023-08-12T14:11:11;26.57;;;24.50;;
20415;SDS011;10367;52.202;5.996;2023-08-12T14:13:40;28.20;;;25.93;;
20415;SDS011;10367;52.202;5.996;2023-08-12T14:16:12;25.50;;;23.83;;
20415;SDS011;10367;52.202;5.996;2023-08-12T14:18:41;27.03;;;24.60;;
20415;SDS011;10367;52.202;5.996;2023-08-12T14:21:10;26.97;;;24.83;;
20415;SDS011;10367;52.202;5.996;2023-08-12T14:23:43;27.10;;;25.23;;
20415;SDS011;10367;52.202;5.996;2023-08-12T14:26:15;26.50;;;24.80;;
20415;SDS011;10367;52.202;5.996;2023-08-12T14:28:52;26.37;;;24.67;;
20415;SDS011;10367;52.202;5.996;2023-08-12T14:34:07;25.57;;;23.87;;
20415;SDS011;10367;52.202;5.996;2023-08-12T14:36:47;28.33;;;25.87;;
20415;SDS011;10367;52.202;5.996;2023-08-12T14:39:18;25.13;;;23.43;;
20415;SDS011;10367;52.202;5.996;2023-08-12T14:41:51;25.23;;;23.83;;
20415;SDS011;10367;52.202;5.996;2023-08-12T14:44:22;27.13;;;24.83;;
20415;SDS011;10367;52.202;5.996;2023-08-12T14:46:56;26.13;;;24.23;;
20415;SDS011;10367;52.202;5.996;2023-08-12T14:49:33;25.53;;;23.40;;
20415;SDS011;10367;52.202;5.996;2023-08-12T14:52:14;25.27;;;23.47;;
20415;SDS011;10367;52.202;5.996;2023-08-12T14:54:47;25.70;;;23.93;;
20415;SDS011;10367;52.202;5.996;2023-08-12T14:57:36;25.60;;;23.80;;
20415;SDS011;10367;52.202;5.996;2023-08-12T15:00:26;27.03;;;25.07;;
20415;SDS011;10367;52.202;5.996;2023-08-12T15:06:01;24.57;;;22.47;;
20415;SDS011;10367;52.202;5.996;2023-08-12T15:09:09;24.93;;;23.13;;
20415;SDS011;10367;52.202;5.996;2023-08-12T15:11:39;26.57;;;24.37;;
20415;SDS011;10367;52.202;5.996;2023-08-12T15:14:09;26.40;;;24.37;;